Time;durP1;ratioP1;P1;durP2;ratioP2;P2;SDS_P1;SDS_P2;PMS_P1;PMS_P2;Temp;Humidity;BMP_temperature;BMP_pressure;BME280_temperature;BME280_humidity;BME280_pressure;Samples;Min_cycle;Max_cycle;Signal;HPM_P1;HPM_P2
2024/01/12 00:01:09;;;;;;;833.67;79.32;;;;;;;;;;4960628;28;20163;-78
2024/01/12 00:03:36;;;;;;;830.30;79.68;;;;;;;;;;4965035;28;20044;-78
2024/01/12 00:06:03;;;;;;;808.88;80.03;;;;;;;;;;4946764;28;20041;-78
2024/01/12 00:08:31;;;;;;;903.50;89.85;;;;;;;;;;4964373;28;20036;-78
2024/01/12 00:11:00;;;;;;;874.88;82.13;;;;;;;;;;4957536;28;20129;-78
2024/01/12 00:13:27;;;;;;;869.83;81.93;;;;;;;;;;4937821;28;20036;-78
2024/01/12 00:15:58;;;;;;;1233.90;125.75;;;;;;;;;;4917982;28;20052;-78
2024/01/12 00:18:29;;;;;;;855.28;78.72;;;;;;;;;;4965166;28;20058;-78
2024/01/12 00:20:56;;;;;;;829.95;75.35;;;;;;;;;;4944879;28;20052;-78
2024/01/12 00:23:22;;;;;;;794.95;74.00;;;;;;;;;;4961658;28;20036;-78
2024/01/12 00:25:49;;;;;;;816.15;73.13;;;;;;;;;;4964994;28;20040;-78
2024/01/12 00:28:16;;;;;;;820.83;75.20;;;;;;;;;;4961958;28;20037;-78
2024/01/12 00:30:45;;;;;;;792.83;71.88;;;;;;;;;;4965946;28;20032;-78
2024/01/12 00:33:12;;;;;;;811.50;73.45;;;;;;;;;;4964230;28;20138;-78
2024/01/12 00:35:39;;;;;;;835.47;75.25;;;;;;;;;;4967494;28;20898;-78
2024/01/12 00:38:06;;;;;;;796.22;71.18;;;;;;;;;;4961929;28;21206;-78
2024/01/12 00:40:32;;;;;;;823.20;74.57;;;;;;;;;;4969717;28;20102;-78
2024/01/12 00:42:59;;;;;;;852.90;78.45;;;;;;;;;;4965582;28;20051;-78
2024/01/12 00:45:25;;;;;;;808.40;73.75;;;;;;;;;;4964753;28;20878;-78
2024/01/12 00:47:52;;;;;;;812.88;74.22;;;;;;;;;;4968477;28;20075;-78
2024/01/12 00:50:19;;;;;;;843.65;79.00;;;;;;;;;;4967579;28;20028;-78
2024/01/12 00:52:46;;;;;;;785.67;73.28;;;;;;;;;;4969510;28;20055;-78
2024/01/12 00:55:12;;;;;;;794.92;72.57;;;;;;;;;;4951302;28;20036;-78
2024/01/12 00:57:39;;;;;;;818.10;75.55;;;;;;;;;;4944993;28;21277;-78
2024/01/12 01:00:06;;;;;;;798.15;73.18;;;;;;;;;;4969341;28;20033;-78
2024/01/12 01:02:32;;;;;;;832.05;78.20;;;;;;;;;;4943417;28;20816;-78
2024/01/12 01:04:59;;;;;;;857.45;79.07;;;;;;;;;;4965974;28;20044;-77
2024/01/12 01:07:28;;;;;;;860.97;80.20;;;;;;;;;;4965380;28;20784;-78
2024/01/12 01:09:55;;;;;;;790.38;72.00;;;;;;;;;;4964416;28;21074;-78
2024/01/12 01:12:21;;;;;;;851.38;79.28;;;;;;;;;;4950335;28;20057;-78
2024/01/12 01:14:48;;;;;;;800.50;73.70;;;;;;;;;;4950891;28;20044;-78
2024/01/12 01:17:14;;;;;;;808.75;74.57;;;;;;;;;;4951089;28;20044;-78
2024/01/12 01:19:41;;;;;;;944.35;90.60;;;;;;;;;;4948997;28;21147;-78
2024/01/12 01:22:08;;;;;;;809.22;74.88;;;;;;;;;;4966362;28;20035;-78
2024/01/12 01:24:34;;;;;;;809.63;74.78;;;;;;;;;;4967469;28;20201;-78
2024/01/12 01:27:01;;;;;;;876.30;81.45;;;;;;;;;;4966981;28;20044;-78
2024/01/12 01:29:27;;;;;;;814.25;74.43;;;;;;;;;;4966894;28;20226;-77
2024/01/12 01:31:54;;;;;;;801.60;72.43;;;;;;;;;;4968330;28;20047;-77
2024/01/12 01:34:21;;;;;;;842.15;76.35;;;;;;;;;;4967418;28;20901;-78
2024/01/12 01:36:47;;;;;;;817.10;75.13;;;;;;;;;;4967018;28;20059;-78
2024/01/12 01:39:14;;;;;;;814.10;73.03;;;;;;;;;;4967651;28;20040;-78
2024/01/12 01:41:41;;;;;;;808.28;73.40;;;;;;;;;;4960177;28;20101;-78
2024/01/12 01:44:07;;;;;;;822.10;73.32;;;;;;;;;;4966898;28;21127;-77
2024/01/12 01:46:34;;;;;;;835.50;75.10;;;;;;;;;;4967342;28;20040;-78
2024/01/12 01:49:00;;;;;;;839.45;76.07;;;;;;;;;;4967295;28;20040;-78
2024/01/12 01:51:27;;;;;;;834.17;74.38;;;;;;;;;;4968597;28;20984;-78
2024/01/12 01:53:54;;;;;;;819.25;73.47;;;;;;;;;;4967308;28;20963;-78
2024/01/12 01:56:22;;;;;;;844.45;76.47;;;;;;;;;;4967945;28;20104;-78
2024/01/12 01:58:49;;;;;;;808.13;72.57;;;;;;;;;;4961778;28;20304;-78
2024/01/12 02:01:16;;;;;;;862.38;83.35;;;;;;;;;;4945849;22;20300;-82
2024/01/12 02:03:43;;;;;;;834.25;79.70;;;;;;;;;;4928529;28;20045;-82
2024/01/12 02:06:11;;;;;;;850.72;82.32;;;;;;;;;;4918210;28;20060;-82
2024/01/12 02:08:38;;;;;;;849.70;81.75;;;;;;;;;;4917728;28;20049;-82
2024/01/12 02:11:05;;;;;;;847.08;80.72;;;;;;;;;;4915058;28;21475;-82
2024/01/12 02:13:31;;;;;;;860.88;82.95;;;;;;;;;;4922078;28;20043;-82
2024/01/12 02:15:58;;;;;;;844.88;80.88;;;;;;;;;;4904055;28;20049;-82
2024/01/12 02:18:25;;;;;;;843.22;79.60;;;;;;;;;;4911354;28;20041;-82
2024/01/12 02:20:56;;;;;;;862.38;83.38;;;;;;;;;;4915947;28;20846;-82
2024/01/12 02:23:23;;;;;;;863.90;84.55;;;;;;;;;;4934079;28;20037;-83
2024/01/12 02:25:50;;;;;;;846.47;83.18;;;;;;;;;;4929948;28;20063;-82
2024/01/12 02:28:18;;;;;;;866.72;85.40;;;;;;;;;;4938246;28;20140;-82
2024/01/12 02:30:45;;;;;;;841.08;82.00;;;;;;;;;;4936813;28;20056;-82
2024/01/12 02:33:12;;;;;;;820.90;79.30;;;;;;;;;;4929524;28;20029;-82
2024/01/12 02:35:39;;;;;;;846.45;82.13;;;;;;;;;;4933604;28;20041;-82
2024/01/12 02:38:05;;;;;;;845.72;82.03;;;;;;;;;;4936972;28;21827;-83
2024/01/12 02:40:32;;;;;;;857.05;84.65;;;;;;;;;;4936051;28;20044;-82
2024/01/12 02:42:59;;;;;;;922.80;91.70;;;;;;;;;;4932157;28;20056;-83
2024/01/12 02:45:26;;;;;;;882.03;86.75;;;;;;;;;;4930165;28;20041;-82
2024/01/12 02:47:53;;;;;;;843.42;82.65;;;;;;;;;;4920583;28;20060;-82
2024/01/12 02:50:22;;;;;;;881.92;86.28;;;;;;;;;;4933124;28;20044;-82
2024/01/12 02:52:48;;;;;;;813.70;78.32;;;;;;;;;;4924497;28;20117;-83
2024/01/12 02:55:16;;;;;;;812.85;78.22;;;;;;;;;;4903394;28;20211;-82
2024/01/12 02:57:42;;;;;;;847.80;82.40;;;;;;;;;;4937348;28;20076;-82
2024/01/12 03:00:10;;;;;;;847.13;81.38;;;;;;;;;;4936006;28;20893;-82
2024/01/12 03:02:36;;;;;;;825.38;79.70;;;;;;;;;;4935243;28;20060;-82
2024/01/12 03:05:03;;;;;;;914.58;89.38;;;;;;;;;;4932204;28;20044;-82
2024/01/12 03:07:31;;;;;;;893.03;86.65;;;;;;;;;;4936297;28;20041;-82
2024/01/12 03:09:58;;;;;;;835.15;80.63;;;;;;;;;;4936156;28;20114;-82
2024/01/12 03:12:26;;;;;;;863.30;82.85;;;;;;;;;;4923466;28;20036;-82
2024/01/12 03:14:53;;;;;;;868.45;83.25;;;;;;;;;;4935714;28;20049;-82
2024/01/12 03:17:20;;;;;;;885.88;85.70;;;;;;;;;;4934137;28;20063;-82
2024/01/12 03:19:47;;;;;;;878.15;84.47;;;;;;;;;;4923210;28;20041;-82
2024/01/12 03:22:14;;;;;;;875.78;84.10;;;;;;;;;;4934693;28;21051;-82
2024/01/12 03:24:41;;;;;;;854.83;82.13;;;;;;;;;;4935321;28;20150;-82
2024/01/12 03:27:07;;;;;;;871.83;84.03;;;;;;;;;;4929181;28;20041;-82
2024/01/12 03:29:34;;;;;;;954.53;92.85;;;;;;;;;;4929311;28;20041;-82
2024/01/12 03:32:01;;;;;;;900.42;86.50;;;;;;;;;;4932032;28;20041;-82
2024/01/12 03:34:28;;;;;;;902.65;87.07;;;;;;;;;;4930024;28;21204;-82
2024/01/12 03:36:54;;;;;;;939.00;91.68;;;;;;;;;;4929695;28;21180;-82
2024/01/12 03:39:21;;;;;;;887.63;86.32;;;;;;;;;;4930701;28;20045;-82
2024/01/12 03:41:48;;;;;;;861.88;83.43;;;;;;;;;;4931234;28;20044;-82
2024/01/12 03:44:14;;;;;;;892.55;88.03;;;;;;;;;;4919911;28;20048;-82
2024/01/12 03:46:41;;;;;;;888.25;86.93;;;;;;;;;;4931534;28;20106;-82
2024/01/12 03:49:07;;;;;;;864.35;84.30;;;;;;;;;;4930887;28;20148;-82
2024/01/12 03:51:35;;;;;;;903.85;90.13;;;;;;;;;;4929427;28;20033;-82
2024/01/12 03:54:02;;;;;;;887.13;89.93;;;;;;;;;;4934325;28;20049;-82
2024/01/12 03:56:28;;;;;;;896.20;89.72;;;;;;;;;;4929541;28;20033;-82
2024/01/12 03:58:55;;;;;;;903.45;91.07;;;;;;;;;;4930329;28;20361;-82
2024/01/12 04:01:22;;;;;;;900.50;90.55;;;;;;;;;;4916084;28;20060;-83
2024/01/12 04:03:49;;;;;;;909.42;90.13;;;;;;;;;;4930010;28;21119;-82
2024/01/12 04:06:18;;;;;;;896.13;89.78;;;;;;;;;;4914851;28;20543;-82
2024/01/12 04:08:45;;;;;;;897.03;89.22;;;;;;;;;;4929449;28;20025;-82
2024/01/12 04:11:19;;;;;;;885.53;87.18;;;;;;;;;;4931286;28;20033;-82
2024/01/12 04:13:46;;;;;;;889.30;87.07;;;;;;;;;;4927675;28;21104;-82
2024/01/12 04:16:13;;;;;;;901.85;88.57;;;;;;;;;;4929110;28;20033;-82
2024/01/12 04:18:39;;;;;;;875.10;85.50;;;;;;;;;;4930429;28;20557;-82
2024/01/12 04:21:06;;;;;;;890.85;87.30;;;;;;;;;;4932079;28;20033;-82
2024/01/12 04:23:33;;;;;;;914.28;91.05;;;;;;;;;;4931553;28;20036;-82
2024/01/12 04:25:59;;;;;;;898.15;87.35;;;;;;;;;;4931363;28;20053;-82
2024/01/12 04:28:27;;;;;;;899.55;87.85;;;;;;;;;;4931057;28;20048;-82
2024/01/12 04:30:53;;;;;;;939.42;90.78;;;;;;;;;;4929162;28;20029;-83
2024/01/12 04:33:20;;;;;;;866.95;83.18;;;;;;;;;;4916999;28;20102;-82
2024/01/12 04:35:47;;;;;;;875.67;85.03;;;;;;;;;;4923866;28;20370;-82
2024/01/12 04:38:14;;;;;;;906.35;87.57;;;;;;;;;;4928335;28;20033;-82
2024/01/12 04:40:41;;;;;;;878.00;85.20;;;;;;;;;;4903076;28;20045;-82
2024/01/12 04:43:07;;;;;;;884.78;86.15;;;;;;;;;;4935245;28;20926;-82
2024/01/12 04:45:34;;;;;;;893.20;87.25;;;;;;;;;;4935663;28;20040;-82
2024/01/12 04:48:01;;;;;;;846.47;81.28;;;;;;;;;;4934530;28;20122;-82
2024/01/12 04:50:30;;;;;;;877.80;84.75;;;;;;;;;;4937263;28;20037;-82
2024/01/12 04:52:56;;;;;;;883.88;86.43;;;;;;;;;;4935591;28;20049;-82
2024/01/12 04:55:23;;;;;;;857.25;83.18;;;;;;;;;;4935813;28;20933;-82
2024/01/12 04:57:49;;;;;;;847.13;82.80;;;;;;;;;;4931717;28;20037;-82
2024/01/12 05:00:18;;;;;;;869.03;85.25;;;;;;;;;;4939649;28;20914;-83
2024/01/12 05:02:45;;;;;;;852.33;82.55;;;;;;;;;;4938367;28;20106;-83
2024/01/12 05:05:11;;;;;;;843.60;82.40;;;;;;;;;;4919450;28;20262;-82
2024/01/12 05:07:38;;;;;;;901.08;88.72;;;;;;;;;;4924247;28;20145;-82
2024/01/12 05:10:05;;;;;;;888.50;87.75;;;;;;;;;;4936477;28;20175;-83
2024/01/12 05:12:32;;;;;;;877.38;85.95;;;;;;;;;;4932421;28;20980;-83
2024/01/12 05:14:59;;;;;;;997.80;100.57;;;;;;;;;;4929018;28;20044;-82
2024/01/12 05:17:27;;;;;;;879.90;85.93;;;;;;;;;;4910314;28;20970;-83
2024/01/12 05:19:54;;;;;;;894.65;88.82;;;;;;;;;;4931256;28;21004;-82
2024/01/12 05:22:21;;;;;;;906.15;89.55;;;;;;;;;;4933234;28;20877;-82
2024/01/12 05:24:48;;;;;;;915.53;90.68;;;;;;;;;;4917730;28;20210;-82
2024/01/12 05:27:14;;;;;;;1067.38;111.93;;;;;;;;;;4918967;28;20037;-82
2024/01/12 05:29:41;;;;;;;927.08;94.20;;;;;;;;;;4932679;28;20147;-82
2024/01/12 05:32:08;;;;;;;923.30;93.82;;;;;;;;;;4932408;28;20041;-82
2024/01/12 05:34:35;;;;;;;892.53;90.68;;;;;;;;;;4931069;28;20423;-82
2024/01/12 05:37:01;;;;;;;908.83;92.15;;;;;;;;;;4929810;28;21184;-82
2024/01/12 05:39:28;;;;;;;909.03;92.68;;;;;;;;;;4933337;28;20897;-81
2024/01/12 05:41:55;;;;;;;873.58;89.85;;;;;;;;;;4934000;28;20048;-82
2024/01/12 05:44:21;;;;;;;841.78;89.82;;;;;;;;;;4940108;28;20037;-84
2024/01/12 05:46:48;;;;;;;826.65;87.20;;;;;;;;;;4943956;28;20045;-84
2024/01/12 05:49:15;;;;;;;830.13;90.22;;;;;;;;;;4942842;28;20037;-84
2024/01/12 05:51:42;;;;;;;865.17;89.90;;;;;;;;;;4939985;28;21202;-83
2024/01/12 05:54:09;;;;;;;826.08;85.05;;;;;;;;;;4946962;28;20072;-89
2024/01/12 05:56:36;;;;;;;805.90;82.95;;;;;;;;;;4936532;28;20035;-84
2024/01/12 05:59:02;;;;;;;762.50;79.03;;;;;;;;;;4948555;28;20037;-86
2024/01/12 06:01:29;;;;;;;794.25;81.82;;;;;;;;;;4934251;28;20257;-84
2024/01/12 06:03:56;;;;;;;762.90;77.38;;;;;;;;;;4954382;28;20055;-86
2024/01/12 06:06:24;;;;;;;765.95;77.90;;;;;;;;;;4956025;28;20037;-85
2024/01/12 06:08:51;;;;;;;782.78;79.85;;;;;;;;;;4955204;28;20045;-84
2024/01/12 06:11:17;;;;;;;754.58;77.90;;;;;;;;;;4952295;28;20037;-84
2024/01/12 06:13:45;;;;;;;744.95;76.78;;;;;;;;;;4958858;28;20091;-85
2024/01/12 06:16:12;;;;;;;764.97;76.38;;;;;;;;;;4942665;28;20933;-84
2024/01/12 06:18:39;;;;;;;771.67;78.10;;;;;;;;;;4956689;28;20115;-85
2024/01/12 06:21:06;;;;;;;834.50;85.45;;;;;;;;;;4953299;28;20559;-85
2024/01/12 06:23:33;;;;;;;875.70;89.55;;;;;;;;;;4941862;28;20051;-88
2024/01/12 06:26:00;;;;;;;820.40;84.93;;;;;;;;;;4928921;28;21001;-85
2024/01/12 06:28:27;;;;;;;1114.00;119.00;;;;;;;;;;4941859;28;20051;-82
2024/01/12 06:30:53;;;;;;;1190.57;128.43;;;;;;;;;;4939015;28;20176;-85
2024/01/12 06:33:21;;;;;;;1040.30;109.65;;;;;;;;;;4919375;28;21094;-84
2024/01/12 06:35:47;;;;;;;801.80;81.53;;;;;;;;;;4941984;28;20048;-83
2024/01/12 06:38:14;;;;;;;804.05;81.45;;;;;;;;;;4941293;28;20090;-84
2024/01/12 06:40:41;;;;;;;826.10;84.85;;;;;;;;;;4946946;28;20036;-84
2024/01/12 06:43:07;;;;;;;860.63;89.50;;;;;;;;;;4944427;28;20319;-84
2024/01/12 06:45:34;;;;;;;832.65;86.57;;;;;;;;;;4946893;28;20143;-84
2024/01/12 06:48:01;;;;;;;1076.82;116.55;;;;;;;;;;4935745;28;20349;-84
2024/01/12 06:50:29;;;;;;;591.00;57.83;;;;;;;;;;4964585;28;20098;-84
2024/01/12 06:52:56;;;;;;;698.05;70.93;;;;;;;;;;4965708;28;20052;-84
2024/01/12 06:55:23;;;;;;;853.42;90.07;;;;;;;;;;4943434;28;21171;-84
2024/01/12 06:57:49;;;;;;;904.58;95.72;;;;;;;;;;4927870;28;20047;-84
2024/01/12 07:00:19;;;;;;;768.42;78.88;;;;;;;;;;4951530;28;20842;-84
2024/01/12 07:02:46;;;;;;;776.83;80.55;;;;;;;;;;4956728;28;20877;-82
2024/01/12 07:05:13;;;;;;;786.85;83.53;;;;;;;;;;4952415;28;20252;-84
2024/01/12 07:07:42;;;;;;;851.88;88.90;;;;;;;;;;4943640;28;20040;-84
2024/01/12 07:10:09;;;;;;;794.67;82.32;;;;;;;;;;4933725;28;20135;-84
2024/01/12 07:12:37;;;;;;;810.45;85.05;;;;;;;;;;4935042;28;20071;-84
2024/01/12 07:15:04;;;;;;;810.28;85.97;;;;;;;;;;4933206;28;20546;-84
2024/01/12 07:17:31;;;;;;;774.60;81.15;;;;;;;;;;4951542;28;20033;-84
2024/01/12 07:19:58;;;;;;;741.92;77.70;;;;;;;;;;4931456;28;20041;-84
2024/01/12 07:22:25;;;;;;;785.22;82.97;;;;;;;;;;4942883;28;20044;-85
2024/01/12 07:24:51;;;;;;;815.42;85.47;;;;;;;;;;4951374;28;20199;-84
2024/01/12 07:27:18;;;;;;;811.13;86.30;;;;;;;;;;4931045;28;21131;-84
2024/01/12 07:29:44;;;;;;;791.97;85.43;;;;;;;;;;4947512;28;20033;-84
2024/01/12 07:32:11;;;;;;;823.83;88.55;;;;;;;;;;4945186;28;20985;-84
2024/01/12 07:34:38;;;;;;;790.72;87.38;;;;;;;;;;4946422;28;20945;-84
2024/01/12 07:37:05;;;;;;;835.40;95.82;;;;;;;;;;4924667;28;20148;-85
2024/01/12 07:39:32;;;;;;;805.45;87.80;;;;;;;;;;4917811;28;20950;-84
2024/01/12 07:41:59;;;;;;;710.60;79.18;;;;;;;;;;4957555;28;20985;-84
2024/01/12 07:44:25;;;;;;;876.72;95.72;;;;;;;;;;4952714;28;21041;-84
2024/01/12 07:46:52;;;;;;;746.95;79.25;;;;;;;;;;4953871;28;20045;-85
2024/01/12 07:49:19;;;;;;;901.55;96.35;;;;;;;;;;4926011;28;20410;-85
2024/01/12 07:51:46;;;;;;;1014.05;109.53;;;;;;;;;;4919408;28;20180;-84
2024/01/12 07:54:13;;;;;;;888.35;94.93;;;;;;;;;;4924053;28;20120;-85
2024/01/12 07:56:40;;;;;;;734.10;74.25;;;;;;;;;;4960235;28;20037;-85
2024/01/12 07:59:06;;;;;;;754.10;76.75;;;;;;;;;;4952153;28;20072;-85
2024/01/12 08:01:33;;;;;;;763.40;78.88;;;;;;;;;;4954959;28;20820;-91
2024/01/12 08:04:00;;;;;;;719.60;74.45;;;;;;;;;;4953658;28;20151;-85
2024/01/12 08:06:27;;;;;;;770.00;79.97;;;;;;;;;;4957702;28;20122;-83
2024/01/12 08:08:53;;;;;;;884.83;93.43;;;;;;;;;;4941035;28;20094;-83
2024/01/12 08:11:20;;;;;;;840.80;86.72;;;;;;;;;;4931932;28;20036;-83
2024/01/12 08:14:11;;;;;;;;;;;;;;;;;;;;;
2024/01/12 08:17:10;;;;;;;897.80;96.05;;;;;;;;;;4922953;28;20273;-83
2024/01/12 08:19:52;;;;;;;917.33;100.05;;;;;;;;;;4919049;28;20066;-83
2024/01/12 08:23:38;;;;;;;;;;;;;;;;;;;;;
2024/01/12 08:26:51;;;;;;;949.53;96.07;;;;;;;;;;4816989;28;20058;-83
2024/01/12 08:30:14;;;;;;;;;;;;;;;;;;;;;
2024/01/12 08:33:54;;;;;;;;;;;;;;;;;;;;;
2024/01/12 08:36:54;;;;;;;959.95;96.90;;;;;;;;;;4604858;30;20297;-82
2024/01/12 08:40:07;;;;;;;1026.65;99.75;;;;;;;;;;4612486;30;20057;-82
2024/01/12 08:43:05;;;;;;;982.20;97.93;;;;;;;;;;4652077;29;20129;-82
2024/01/12 08:49:51;;;;;;;936.85;93.10;;;;;;;;;;4702711;29;21025;-82
2024/01/12 08:53:00;;;;;;;;;;;;;;;;;;;;;
2024/01/12 08:56:07;;;;;;;;;;;;;;;;;;;;;
2024/01/12 08:59:20;;;;;;;920.13;93.25;;;;;;;;;;4787715;29;20961;-83
2024/01/12 09:02:52;;;;;;;;;;;;;;;;;;;;;
2024/01/12 09:06:27;;;;;;;;;;;;;;;;;;;;;
2024/01/12 09:09:49;;;;;;;;;;;;;;;;;;;;;
2024/01/12 09:13:04;;;;;;;;;;;;;;;;;;;;;
2024/01/12 09:16:12;;;;;;;;;;;;;;;;;;;;;
2024/01/12 09:19:40;;;;;;;;;;;;;;;;;;;;;
2024/01/12 09:22:46;;;;;;;;;;;;;;;;;;;;;
2024/01/12 09:26:12;;;;;;;;;;;;;;;;;;;;;
2024/01/12 09:29:21;;;;;;;879.22;87.60;;;;;;;;;;4751027;29;20063;-82
2024/01/12 09:32:41;;;;;;;926.45;92.72;;;;;;;;;;4794487;29;20044;-82
2024/01/12 09:35:28;;;;;;;976.33;95.38;;;;;;;;;;4736146;29;20077;-82
2024/01/12 09:38:47;;;;;;;;;;;;;;;;;;;;;
2024/01/12 09:41:54;;;;;;;;;;;;;;;;;;;;;
2024/01/12 09:45:23;;;;;;;;;;;;;;;;;;;;;
2024/01/12 09:48:24;;;;;;;952.40;92.28;;;;;;;;;;4811075;29;21048;-82
2024/01/12 09:51:28;;;;;;;;;;;;;;;;;;;;;
2024/01/12 09:54:19;;;;;;;874.30;87.60;;;;;;;;;;4869898;28;20102;-82
2024/01/12 09:57:19;;;;;;;834.10;81.40;;;;;;;;;;4875709;28;20640;-82
2024/01/12 09:59:51;;;;;;;987.63;97.05;;;;;;;;;;4866121;28;20990;-82
2024/01/12 10:02:49;;;;;;;942.85;95.35;;;;;;;;;;4844263;28;20047;-82
2024/01/12 10:05:41;;;;;;;965.65;93.00;;;;;;;;;;4769377;29;20052;-82
2024/01/12 10:08:46;;;;;;;922.67;90.50;;;;;;;;;;4714771;29;21039;-82
2024/01/12 10:11:43;;;;;;;1010.47;96.18;;;;;;;;;;4666360;29;20115;-83
2024/01/12 10:14:51;;;;;;;;;;;;;;;;;;;;;
2024/01/12 10:17:34;;;;;;;928.65;89.72;;;;;;;;;;4640554;30;20939;-81
2024/01/12 10:20:10;;;;;;;923.90;88.68;;;;;;;;;;4692474;29;21115;-82
2024/01/12 10:23:20;;;;;;;908.97;94.00;;;;;;;;;;4709459;29;20563;-82
2024/01/12 10:26:31;;;;;;;;;;;;;;;;;;;;;
2024/01/12 10:29:37;;;;;;;;;;;;;;;;;;;;;
2024/01/12 10:32:36;;;;;;;885.47;85.85;;;;;;;;;;4849315;28;20492;-82
2024/01/12 10:35:38;;;;;;;;;;;;;;;;;;;;;
2024/01/12 10:38:38;;;;;;;;;;;;;;;;;;;;;
2024/01/12 10:41:41;;;;;;;871.25;86.10;;;;;;;;;;4869459;28;20042;-82
2024/01/12 10:44:35;;;;;;;857.75;83.50;;;;;;;;;;4792697;29;20948;-82
2024/01/12 10:47:05;;;;;;;961.65;94.97;;;;;;;;;;4797970;28;21052;-82
2024/01/12 10:50:23;;;;;;;;;;;;;;;;;;;;;
2024/01/12 10:53:21;;;;;;;916.55;88.75;;;;;;;;;;4791998;29;20055;-82
2024/01/12 10:56:22;;;;;;;982.72;94.35;;;;;;;;;;4817976;28;20154;-81
2024/01/12 10:59:12;;;;;;;915.88;87.72;;;;;;;;;;4758421;29;21037;-81
2024/01/12 11:02:13;;;;;;;914.22;87.55;;;;;;;;;;4724226;29;20083;-82
2024/01/12 11:04:56;;;;;;;;;;;;;;;;;;4718264;29;21199;-82
2024/01/12 11:07:49;;;;;;;;;;;;;;;;;;;;;
2024/01/12 11:11:21;;;;;;;;;;;;;;;;;;;;;
2024/01/12 11:14:00;;;;;;;926.35;91.85;;;;;;;;;;4714809;29;20103;-82
2024/01/12 11:17:01;;;;;;;911.55;88.65;;;;;;;;;;4721470;29;20050;-81
2024/01/12 11:20:10;;;;;;;929.35;91.70;;;;;;;;;;4781639;29;20386;-81
2024/01/12 11:23:18;;;;;;;;;;;;;;;;;;;;;
2024/01/12 11:26:15;;;;;;;906.22;90.28;;;;;;;;;;4752248;29;20126;-82
2024/01/12 11:29:05;;;;;;;924.25;92.07;;;;;;;;;;4732938;29;20052;-80
2024/01/12 11:31:54;;;;;;;916.67;94.32;;;;;;;;;;4811599;29;20160;-80
2024/01/12 11:35:04;;;;;;;981.20;98.13;;;;;;;;;;4792006;28;20963;-80
2024/01/12 11:37:46;;;;;;;942.22;91.43;;;;;;;;;;4821329;28;20921;-80
2024/01/12 11:40:46;;;;;;;;;;;;;;;;;;;;;
2024/01/12 11:43:55;;;;;;;927.10;91.07;;;;;;;;;;4741381;29;20391;-81
2024/01/12 11:46:48;;;;;;;926.63;93.18;;;;;;;;;;4741200;29;20036;-81
2024/01/12 11:49:49;;;;;;;1047.53;106.30;;;;;;;;;;4763669;29;20478;-80
2024/01/12 11:52:38;;;;;;;896.03;89.18;;;;;;;;;;4814755;29;20166;-80
2024/01/12 11:55:09;;;;;;;905.88;89.82;;;;;;;;;;4820764;28;20207;-80
2024/01/12 11:58:06;;;;;;;;;;;;;;;;;;;;;
2024/01/12 12:00:33;;;;;;;917.13;91.63;;;;;;;;;;4810334;28;21173;-80
2024/01/12 12:03:03;;;;;;;934.90;93.60;;;;;;;;;;4885421;28;20112;-80
2024/01/12 12:05:43;;;;;;;926.28;93.05;;;;;;;;;;4898099;28;20069;-80
2024/01/12 12:08:11;;;;;;;913.72;91.40;;;;;;;;;;4916316;28;20033;-80
2024/01/12 12:10:40;;;;;;;895.97;88.38;;;;;;;;;;4895937;28;20998;-80
2024/01/12 12:13:40;;;;;;;;;;;;;;;;;;;;;
2024/01/12 12:16:21;;;;;;;;;;;;;;;;;;;;;
2024/01/12 12:18:59;;;;;;;926.80;93.20;;;;;;;;;;4912508;28;20948;-80
2024/01/12 12:21:56;;;;;;;;;;;;;;;;;;;;;
2024/01/12 12:24:51;;;;;;;897.72;88.50;;;;;;;;;;4862556;28;20084;-81
2024/01/12 12:27:19;;;;;;;910.22;90.32;;;;;;;;;;4913697;28;20048;-80
2024/01/12 12:30:10;;;;;;;900.30;91.07;;;;;;;;;;4913966;28;20048;-80
2024/01/12 12:32:43;;;;;;;913.80;91.82;;;;;;;;;;4931794;28;20037;-80
2024/01/12 12:35:32;;;;;;;924.80;92.93;;;;;;;;;;4912003;28;20152;-80
2024/01/12 12:38:15;;;;;;;880.90;87.28;;;;;;;;;;4933100;28;20036;-80
2024/01/12 12:40:49;;;;;;;898.80;89.57;;;;;;;;;;4935286;28;21055;-81
2024/01/12 12:43:21;;;;;;;883.70;88.17;;;;;;;;;;4918999;28;20071;-81
2024/01/12 12:46:11;;;;;;;959.88;96.70;;;;;;;;;;4899126;28;20049;-81
2024/01/12 12:48:52;;;;;;;;;;;;;;;;;;;;;
2024/01/12 12:51:24;;;;;;;890.38;89.20;;;;;;;;;;4931414;28;20074;-80
2024/01/12 12:53:50;;;;;;;897.28;90.45;;;;;;;;;;4931311;28;20041;-81
2024/01/12 12:56:28;;;;;;;920.95;92.85;;;;;;;;;;4930782;28;20587;-80
2024/01/12 12:59:08;;;;;;;;;;;;;;;;;;;;;
2024/01/12 13:01:42;;;;;;;950.20;95.63;;;;;;;;;;4921045;28;20120;-81
2024/01/12 13:04:14;;;;;;;936.80;93.68;;;;;;;;;;4916595;28;20045;-81
2024/01/12 13:06:44;;;;;;;903.35;89.35;;;;;;;;;;4925618;28;20144;-81
2024/01/12 13:09:17;;;;;;;904.80;89.00;;;;;;;;;;4931151;28;20034;-81
2024/01/12 13:11:51;;;;;;;935.88;92.57;;;;;;;;;;4918830;28;20396;-80
2024/01/12 13:14:51;;;;;;;892.85;88.10;;;;;;;;;;4931340;28;21048;-80
2024/01/12 13:17:21;;;;;;;932.22;92.85;;;;;;;;;;4929199;28;20048;-81
2024/01/12 13:19:50;;;;;;;905.97;88.82;;;;;;;;;;4907346;28;21000;-80
2024/01/12 13:22:17;;;;;;;904.95;89.97;;;;;;;;;;4895349;28;20028;-80
2024/01/12 13:25:14;;;;;;;922.45;91.13;;;;;;;;;;4893759;28;20274;-80
2024/01/12 13:28:22;;;;;;;;;;;;;;;;;;;;;
2024/01/12 13:31:23;;;;;;;911.47;89.82;;;;;;;;;;4871490;28;20050;-81
2024/01/12 13:33:50;;;;;;;901.75;90.05;;;;;;;;;;4910619;28;20061;-80
2024/01/12 13:36:39;;;;;;;926.05;92.72;;;;;;;;;;4902708;28;20160;-80
2024/01/12 13:39:08;;;;;;;908.72;90.43;;;;;;;;;;4920543;28;20042;-80
2024/01/12 13:42:05;;;;;;;911.90;90.22;;;;;;;;;;4825699;28;20996;-81
2024/01/12 13:44:34;;;;;;;927.03;92.47;;;;;;;;;;4924406;28;20040;-81
2024/01/12 13:47:26;;;;;;;898.05;89.20;;;;;;;;;;4905607;28;20040;-80
2024/01/12 13:49:53;;;;;;;916.15;88.88;;;;;;;;;;4930310;28;20044;-80
2024/01/12 13:52:48;;;;;;;908.95;90.93;;;;;;;;;;4929370;28;20854;-86
2024/01/12 13:55:35;;;;;;;;;;;;;;;;;;;;;
2024/01/12 13:58:26;;;;;;;899.97;88.43;;;;;;;;;;4909183;28;20088;-82
2024/01/12 14:00:55;;;;;;;919.60;92.05;;;;;;;;;;4906363;28;20291;-85
2024/01/12 14:03:30;;;;;;;919.95;92.82;;;;;;;;;;4901971;28;20057;-82
2024/01/12 14:06:01;;;;;;;888.50;87.85;;;;;;;;;;4921793;28;21052;-82
2024/01/12 14:08:34;;;;;;;891.08;89.45;;;;;;;;;;4908499;28;20041;-83
2024/01/12 14:11:03;;;;;;;911.72;91.65;;;;;;;;;;4914891;28;20056;-82
2024/01/12 14:13:53;;;;;;;899.72;89.50;;;;;;;;;;4890116;28;21182;-82
2024/01/12 14:16:49;;;;;;;901.38;89.45;;;;;;;;;;4928372;28;20413;-83
2024/01/12 14:19:19;;;;;;;898.13;89.00;;;;;;;;;;4923872;28;20952;-82
2024/01/12 14:21:49;;;;;;;929.50;93.60;;;;;;;;;;4916380;28;20136;-82
2024/01/12 14:24:18;;;;;;;909.85;94.10;;;;;;;;;;4911465;28;20087;-82
2024/01/12 14:27:05;;;;;;;;;;;;;;;;;;;;;
2024/01/12 14:30:13;;;;;;;884.83;89.53;;;;;;;;;;4884665;28;20049;-83
2024/01/12 14:33:25;;;;;;;897.25;90.90;;;;;;;;;;4838127;28;20870;-84
2024/01/12 14:36:45;;;;;;;888.88;90.03;;;;;;;;;;4833501;28;20050;-84
2024/01/12 14:39:49;;;;;;;859.45;85.15;;;;;;;;;;4862665;28;20048;-84
2024/01/12 14:42:58;;;;;;;;;;;;;;;;;;;;;
2024/01/12 14:46:11;;;;;;;1464.80;155.90;;;;;;;;;;4756660;29;20058;-83
2024/01/12 14:49:11;;;;;;;;;;;;;;;;;;;;;
2024/01/12 14:52:23;;;;;;;;;;;;;;;;;;;;;
2024/01/12 14:55:23;;;;;;;;;;;;;;;;;;;;;
2024/01/12 14:58:21;;;;;;;996.50;101.38;;;;;;;;;;4755534;28;21004;-83
2024/01/12 15:01:04;;;;;;;942.78;99.05;;;;;;;;;;4929225;28;21240;-84
2024/01/12 15:04:19;;;;;;;919.47;95.60;;;;;;;;;;4846180;28;20524;-83
2024/01/12 15:07:28;;;;;;;;;;;;;;;;;;;;;
2024/01/12 15:10:03;;;;;;;782.88;79.88;;;;;;;;;;4854906;28;20256;-83
2024/01/12 15:12:32;;;;;;;910.65;96.32;;;;;;;;;;4846755;28;20047;-83
2024/01/12 15:15:41;;;;;;;;;;;;;;;;;;;;;
2024/01/12 15:18:34;;;;;;;881.25;91.80;;;;;;;;;;4876395;28;20107;-84
2024/01/12 15:21:18;;;;;;;919.05;94.63;;;;;;;;;;4934822;28;20877;-84
2024/01/12 15:23:47;;;;;;;882.13;92.47;;;;;;;;;;4929674;28;20052;-84
2024/01/12 15:26:40;;;;;;;863.03;90.75;;;;;;;;;;4913629;28;20048;-86
2024/01/12 15:29:19;;;;;;;961.22;114.75;;;;;;;;;;4919993;28;20337;-83
2024/01/12 15:31:48;;;;;;;948.28;102.15;;;;;;;;;;4911947;28;20094;-84
2024/01/12 15:34:18;;;;;;;923.35;101.45;;;;;;;;;;4923337;28;20055;-86
2024/01/12 15:36:49;;;;;;;820.05;88.43;;;;;;;;;;4920838;28;20927;-84
2024/01/12 15:39:44;;;;;;;870.60;93.53;;;;;;;;;;4852131;28;20050;-85
2024/01/12 15:42:11;;;;;;;945.53;102.82;;;;;;;;;;4856828;28;20043;-84
2024/01/12 15:44:49;;;;;;;884.25;94.25;;;;;;;;;;4904550;28;20048;-84
2024/01/12 15:47:19;;;;;;;1023.65;112.38;;;;;;;;;;4891227;28;21021;-84
2024/01/12 15:49:53;;;;;;;1045.82;113.50;;;;;;;;;;4879267;28;21117;-81
2024/01/12 15:52:30;;;;;;;1284.93;145.32;;;;;;;;;;4906036;28;21002;-84
2024/01/12 15:54:57;;;;;;;951.20;109.43;;;;;;;;;;4897551;28;21094;-82